Stations météo

Publicité
Cholet, France (7233): Température de l'air & dewpoint: 23.09.2020 18:00:00 - 29.09.2020 18:00:00 (CEST)Cholet, France (7233): Vitesse du vent & gusts: 23.09.2020 18:00:00 - 29.09.2020 18:00:00 (CEST)Cholet, France (7233): Direction du vent: 23.09.2020 18:00:00 - 29.09.2020 18:00:00 (CEST)Cholet, France (7233): reduced air pressure: 23.09.2020 18:00:00 - 29.09.2020 18:00:00 (CEST)Cholet, France (7233): Quantités de précipitations: 23.09.2020 18:00:00 - 29.09.2020 18:00:00 (CEST)
Date & Time tt [°C] td [°C] ff [km/h] ff [knt] fx [km/h] fx [knt] dd ppp [hPa] rr [mm]
29.09.2020 18:00:00 - - - - - - - - -
29.09.2020 17:00:00 - - - - - - - - -
29.09.2020 16:00:00 - - - - - - - - -
29.09.2020 15:00:00 18,1 14,0 13 7 25 13 W 1019,7 0,0
29.09.2020 14:00:00 18,2 12,4 12 6 25 14 SW 1020,0 0,0
29.09.2020 13:00:00 17,7 13,6 11 6 23 13 SW 1020,3 0,0
29.09.2020 12:00:00 - - - - - - - - -
29.09.2020 11:00:00 15,7 14,1 10 5 18 10 SSW 1020,5 0,0
29.09.2020 10:00:00 14,5 13,7 8 5 13 7 SSW 1020,1 0,0
29.09.2020 09:00:00 14,2 13,9 6 3 14 8 SSW 1019,9 0,0
29.09.2020 08:00:00 14,2 13,9 4 2 9 5 SSW 1019,6 0,0
29.09.2020 07:00:00 14,1 13,6 6 3 11 6 SW 1019,5 0,0
29.09.2020 06:00:00 13,8 13,3 5 3 12 6 SW 1019,5 0,0
29.09.2020 05:00:00 13,9 13,4 7 4 14 8 SW 1019,3 0,0
29.09.2020 04:00:00 14,1 13,8 7 4 13 7 SW 1019,6 0,0
29.09.2020 03:00:00 14,1 13,8 6 4 14 7 SW 1019,4 0,0
29.09.2020 02:00:00 14,0 13,7 8 4 12 7 SSW 1019,6 0,0
29.09.2020 01:00:00 13,8 13,3 6 3 14 8 SW 1019,8 0,0
29.09.2020 00:00:00 13,6 13,1 9 5 16 8 SW 1019,9 0,0
28.09.2020 23:00:00 13,5 13,0 8 5 16 9 SW 1019,7 0,0
28.09.2020 22:00:00 13,5 12,7 10 5 17 9 WSW 1019,4 0,0
28.09.2020 21:00:00 13,4 12,1 6 4 11 6 SW 1019,3 0,0
28.09.2020 20:00:00 14,4 11,9 7 4 16 9 WSW 1018,8 0,0
28.09.2020 19:00:00 15,8 11,6 11 6 22 12 W 1017,9 0,0
28.09.2020 18:00:00 15,9 11,5 12 7 29 16 W 1017,7 0,0
28.09.2020 17:00:00 17,0 10,1 13 7 32 17 WNW 1017,3 0,0
28.09.2020 16:00:00 16,6 9,0 11 6 37 20 NNW 1017,4 0,0
28.09.2020 15:00:00 16,2 7,9 13 7 29 16 WNW 1017,7 0,0
28.09.2020 14:00:00 16,0 7,7 16 9 34 18 W 1017,9 0,0
28.09.2020 13:00:00 14,6 8,1 16 9 28 15 WNW 1018,0 0,0
28.09.2020 12:00:00 13,3 8,6 16 9 27 14 W 1017,9 0,0
28.09.2020 11:00:00 11,5 8,2 11 6 21 11 W 1017,9 0,0
28.09.2020 10:00:00 9,7 8,1 11 6 27 14 W 1017,6 0,0
28.09.2020 09:00:00 7,8 7,0 14 8 30 16 W 1017,3 0,0
28.09.2020 08:00:00 7,2 6,6 11 6 23 12 W 1016,8 0,0
28.09.2020 07:00:00 7,7 6,8 9 5 20 11 W 1016,2 0,0
28.09.2020 06:00:00 8,4 7,3 10 6 22 12 W 1015,9 0,0
28.09.2020 05:00:00 9,4 7,7 11 6 24 13 WNW 1015,9 0,0
28.09.2020 04:00:00 10,7 8,5 10 6 24 13 WNW 1016,1 0,0
28.09.2020 03:00:00 10,5 8,1 16 8 32 17 WNW 1016,2 0,0
28.09.2020 02:00:00 11,3 8,3 14 8 30 16 WNW 1016,2 0,0
28.09.2020 01:00:00 12,1 8,6 13 7 28 15 WNW 1016,0 0,0
28.09.2020 00:00:00 12,5 8,4 10 5 21 12 WNW 1015,9 0,0
27.09.2020 23:00:00 12,5 8,2 9 5 18 10 NW 1015,8 0,0
27.09.2020 22:00:00 12,5 8,0 10 6 20 11 NW 1015,4 0,0
27.09.2020 21:00:00 12,7 7,8 8 5 25 14 NNW 1014,9 0,0
27.09.2020 20:00:00 12,7 7,6 13 7 26 14 NNW 1014,7 0,0
27.09.2020 19:00:00 13,0 7,7 14 7 34 19 NNW 1014,2 0,0
27.09.2020 18:00:00 13,5 7,5 16 9 - - NNW 1013,7 0,0
27.09.2020 17:00:00 14,3 7,1 19 10 48 26 NNW 1013,3 0,0
27.09.2020 16:00:00 15,1 7,1 22 12 44 24 NW 1012,9 0,0
27.09.2020 15:00:00 14,5 6,8 19 10 42 23 NNW 1013,3 0,0
27.09.2020 14:00:00 13,4 6,3 21 11 41 22 NNW 1013,4 0,0
27.09.2020 13:00:00 12,1 7,0 21 11 40 21 WNW 1013,5 0,0
27.09.2020 12:00:00 11,7 7,2 16 8 32 17 WNW 1013,7 0,0
27.09.2020 11:00:00 10,3 6,6 17 9 35 19 W 1014,0 0,0
27.09.2020 10:00:00 9,6 6,5 18 10 33 18 W 1013,7 0,0
27.09.2020 09:00:00 8,8 6,1 14 8 26 14 W 1014,1 0,0
27.09.2020 08:00:00 7,9 5,4 8 4 22 12 W 1014,5 0,0
27.09.2020 07:00:00 8,1 5,2 13 7 24 13 W 1014,5 0,0
27.09.2020 06:00:00 7,8 4,7 13 7 28 15 W 1014,5 0,0
27.09.2020 05:00:00 7,2 4,5 11 6 21 12 W 1014,8 0,0
27.09.2020 04:00:00 6,6 3,9 13 7 26 14 W 1015,0 0,0
27.09.2020 03:00:00 6,9 3,9 11 6 20 11 W 1015,2 0,0
27.09.2020 02:00:00 7,0 3,6 11 6 20 11 W 1015,2 0,0
27.09.2020 01:00:00 7,6 3,4 6 4 16 8 W 1015,2 0,0
27.09.2020 00:00:00 8,0 3,8 8 5 18 10 NW 1015,1 0,0
26.09.2020 23:00:00 8,4 3,8 10 6 21 11 NNW 1014,7 0,0
26.09.2020 22:00:00 9,0 3,4 11 6 21 11 NNW 1014,2 0,0
26.09.2020 21:00:00 9,7 2,5 10 6 29 16 NNW 1013,3 0,0
26.09.2020 20:00:00 11,3 1,8 12 7 32 17 NNW 1012,4 0,0
26.09.2020 19:00:00 13,1 4,0 14 8 36 20 NNW 1011,5 0,0
26.09.2020 18:00:00 13,9 3,4 20 11 35 19 N 1010,9 0,0
26.09.2020 17:00:00 13,7 5,1 14 7 34 18 N 1011,2 0,0
26.09.2020 16:00:00 12,5 6,1 13 7 35 19 N 1011,7 0,0
26.09.2020 15:00:00 14,3 5,1 10 5 27 15 NNW 1012,2 0,0
26.09.2020 14:00:00 13,7 4,8 12 6 27 14 NW 1013,0 0,0
26.09.2020 13:00:00 12,7 6,1 14 8 32 18 NW 1014,0 0,0
26.09.2020 12:00:00 12,4 6,4 16 9 29 16 WNW 1014,8 0,0
26.09.2020 11:00:00 11,8 7,3 14 8 31 17 NW 1015,0 0,0
26.09.2020 10:00:00 10,5 6,6 11 6 21 11 WNW 1015,4 0,0
26.09.2020 09:00:00 8,4 6,4 9 5 19 10 W 1015,6 0,0
26.09.2020 08:00:00 8,0 6,3 8 4 17 9 WSW 1015,7 0,0
26.09.2020 07:00:00 8,6 6,2 9 5 22 12 W 1015,9 0,0
26.09.2020 06:00:00 8,6 6,4 10 5 21 11 W 1015,9 0,0
26.09.2020 05:00:00 9,4 6,3 13 7 28 15 W 1016,1 0,0
26.09.2020 04:00:00 8,8 6,6 15 8 27 14 W 1016,3 0,0
26.09.2020 03:00:00 8,6 6,6 13 7 26 14 W 1016,9 0,0
26.09.2020 02:00:00 8,7 6,1 13 7 24 13 W 1017,2 0,0
26.09.2020 01:00:00 9,0 5,4 14 7 24 13 W 1017,3 0,0
26.09.2020 00:00:00 9,5 5,1 13 7 26 14 W 1017,3 0,0
25.09.2020 23:00:00 9,9 4,7 12 6 30 16 W 1017,2 0,0
25.09.2020 22:00:00 10,6 5,1 13 7 27 15 W 1016,6 0,0
25.09.2020 21:00:00 11,5 5,6 16 8 30 16 WNW 1015,8 0,0
25.09.2020 20:00:00 11,7 6,4 14 8 - - WNW 1014,9 0,0
25.09.2020 19:00:00 11,4 7,3 13 7 48 26 WNW 1014,4 0,4
25.09.2020 18:00:00 13,3 5,2 20 11 45 24 NW 1013,5 0,0
25.09.2020 17:00:00 13,5 8,1 16 9 55 30 WNW 1012,8 0,4
25.09.2020 16:00:00 14,9 6,5 24 13 51 28 WNW 1011,6 0,0
25.09.2020 15:00:00 13,4 6,9 18 10 44 24 NW 1011,3 0,0
25.09.2020 14:00:00 11,9 8,6 17 9 52 28 NW 1010,9 1,0
25.09.2020 13:00:00 13,2 6,3 23 12 46 25 WNW 1010,0 0,0
25.09.2020 12:00:00 12,7 6,3 24 13 50 27 WNW 1009,6 0,0
25.09.2020 11:00:00 12,3 7,0 21 11 44 24 WNW 1008,8 0,0
25.09.2020 10:00:00 11,6 7,1 16 9 40 21 WNW 1007,9 0,0
25.09.2020 09:00:00 10,2 6,9 16 8 34 19 W 1006,8 0,0
25.09.2020 08:00:00 9,7 6,4 18 10 35 19 W 1005,7 0,0
25.09.2020 07:00:00 9,8 6,3 15 8 30 16 W 1005,0 0,0
25.09.2020 06:00:00 9,9 7,1 14 8 35 19 WSW 1004,3 0,0
25.09.2020 05:00:00 9,5 8,3 10 5 27 15 SW 1003,8 0,0
25.09.2020 04:00:00 9,7 8,1 13 7 29 15 SW 1004,1 0,0
25.09.2020 03:00:00 9,5 8,1 14 8 29 16 SSW 1004,1 0,0
25.09.2020 02:00:00 9,2 7,6 16 9 41 22 SW 1004,6 1,2
25.09.2020 01:00:00 9,5 7,4 17 9 36 20 W 1004,8 0,8
25.09.2020 00:00:00 10,5 6,6 16 9 40 21 SW 1004,7 0,0
24.09.2020 23:00:00 9,8 7,2 14 8 25 14 SSW 1004,8 0,0
24.09.2020 22:00:00 10,2 7,6 12 6 23 13 SW 1004,7 0,0
24.09.2020 21:00:00 10,2 8,1 13 7 40 22 WSW 1004,2 1,6
24.09.2020 20:00:00 12,0 8,7 16 9 32 17 SW 1003,3 0,0
24.09.2020 19:00:00 - - - - - - - - -
24.09.2020 18:00:00 13,5 8,8 22 12 59 32 W 1002,5 0,0
24.09.2020 17:00:00 14,6 10,6 21 11 60 32 WSW 1002,2 2,6
24.09.2020 16:00:00 16,5 12,3 19 11 54 29 SW 1002,0 4,6
24.09.2020 15:00:00 15,2 11,8 27 15 52 28 SW 1003,4 1,6
24.09.2020 14:00:00 15,6 12,9 25 14 45 25 SSW 1003,9 0,6
24.09.2020 13:00:00 13,7 11,6 22 12 39 21 SW 1005,1 0,8
24.09.2020 12:00:00 15,6 12,0 14 8 33 18 SW 1005,6 0,0
24.09.2020 11:00:00 13,9 12,6 14 8 34 19 SSW 1006,1 0,4
24.09.2020 10:00:00 14,3 11,6 17 9 39 21 SSW 1006,2 0,2
24.09.2020 09:00:00 12,9 11,3 15 8 22 12 S 1006,3 0,0
24.09.2020 08:00:00 12,5 10,9 17 9 35 19 SSW 1006,8 0,2
24.09.2020 07:00:00 11,3 9,7 9 5 14 8 S 1007,2 0,0
24.09.2020 06:00:00 11,0 9,4 8 4 14 8 S 1007,8 0,0
24.09.2020 05:00:00 11,2 9,9 8 4 14 7 S 1008,5 0,0
24.09.2020 04:00:00 11,5 10,4 9 5 14 8 SSW 1008,9 0,0
24.09.2020 03:00:00 11,2 10,3 8 5 12 7 SSW 1009,3 0,2
24.09.2020 02:00:00 11,5 10,6 3 2 9 5 SSW 1009,3 0,0
24.09.2020 01:00:00 12,0 10,7 5 3 13 7 WSW 1009,4 0,0
24.09.2020 00:00:00 12,7 11,4 7 4 16 9 SW 1008,9 0,0
23.09.2020 23:00:00 - - - - - - - - -
23.09.2020 22:00:00 14,4 12,1 12 6 29 15 WSW 1008,2 0,0
23.09.2020 21:00:00 15,0 12,1 13 7 29 16 W 1007,1 0,0
23.09.2020 20:00:00 16,0 15,0 11 6 32 17 W 1006,0 0,4
23.09.2020 19:00:00 17,3 16,7 11 6 31 17 WSW 1005,0 1,2
23.09.2020 18:00:00 17,6 15,9 17 9 30 16 SSW 1004,6 0,0

tt = Température de l'air
td = dewpoint
ff = Vitesse du vent
fx = gusts
dd = Direction du vent
ppp = reduced air pressure
rr = Quantités de précipitations

stations d'obs. à proximité